createdAt,value
2018-10-12T00:00:10.846Z,3.5
2018-10-12T00:00:40.344Z,3.3
2018-10-12T00:01:09.850Z,3.6
2018-10-12T00:01:39.341Z,3.5
2018-10-12T00:02:08.845Z,3.2
2018-10-12T00:02:38.337Z,3.3
2018-10-12T00:03:07.898Z,3.4
2018-10-12T00:03:37.389Z,3.1
2018-10-12T00:04:06.875Z,3.3
2018-10-12T00:04:36.370Z,3.3
2018-10-12T00:05:05.861Z,3.3
2018-10-12T00:05:35.355Z,3.4
2018-10-12T00:06:04.851Z,3.4
2018-10-12T00:06:34.358Z,3.5
2018-10-12T00:07:03.883Z,3.3
2018-10-12T00:07:33.372Z,3.3
2018-10-12T00:08:03.857Z,3.6
2018-10-12T00:08:33.412Z,3.5
2018-10-12T00:09:03.901Z,3.3
2018-10-12T00:09:34.388Z,3.4
2018-10-12T00:10:03.880Z,3.3
2018-10-12T00:10:33.378Z,3.7
2018-10-12T00:11:03.877Z,3.6
2018-10-12T00:11:33.381Z,3.2
2018-10-12T00:12:02.885Z,3.5
2018-10-12T00:12:32.415Z,3.4
2018-10-12T00:13:01.910Z,3.4
2018-10-12T00:13:31.463Z,3.7
2018-10-12T00:14:00.952Z,4.3
2018-10-12T00:14:30.452Z,4.1
2018-10-12T00:14:59.957Z,4.1
2018-10-12T00:15:29.463Z,4.6
2018-10-12T00:15:59.012Z,4.2
2018-10-12T00:16:28.513Z,3.9
2018-10-12T00:16:58.006Z,3.7
2018-10-12T00:17:27.503Z,3.6
2018-10-12T00:17:57.008Z,3.7
2018-10-12T00:18:26.511Z,3.6
2018-10-12T00:18:56.059Z,3.8
2018-10-12T00:19:25.584Z,3.6
2018-10-12T00:19:55.082Z,3.8
2018-10-12T00:20:24.587Z,3.6
2018-10-12T00:20:54.095Z,3.4
2018-10-12T00:21:23.592Z,3.6
2018-10-12T00:21:53.113Z,3.5
2018-10-12T00:22:22.605Z,3.6
2018-10-12T00:22:52.100Z,3.6
2018-10-12T00:23:21.596Z,3.8
2018-10-12T00:23:51.202Z,3.8
2018-10-12T00:24:20.685Z,3.4
2018-10-12T00:24:50.189Z,3.7
2018-10-12T00:25:19.688Z,3.6
2018-10-12T00:25:49.187Z,3.9
2018-10-12T00:26:18.677Z,3.8
2018-10-12T00:26:48.192Z,3.7
2018-10-12T00:27:17.689Z,4
2018-10-12T00:27:47.177Z,3.8
2018-10-12T00:28:16.670Z,3.9
2018-10-12T00:28:46.222Z,4.3
2018-10-12T00:29:15.732Z,3.8
2018-10-12T00:29:45.234Z,3.7
2018-10-12T00:30:14.763Z,3.9
2018-10-12T00:30:44.255Z,3.4
2018-10-12T00:31:13.756Z,4
2018-10-12T00:31:43.254Z,3.6
2018-10-12T00:32:12.752Z,3.7
2018-10-12T00:32:42.280Z,3.9
2018-10-12T00:33:11.773Z,3.5
2018-10-12T00:33:41.278Z,3.8
2018-10-12T00:34:10.825Z,3.8
2018-10-12T00:34:40.319Z,4.1
2018-10-12T00:35:09.810Z,3.8
2018-10-12T00:35:39.304Z,3.8
2018-10-12T00:36:08.797Z,3.9
2018-10-12T00:36:38.313Z,4
2018-10-12T00:37:07.800Z,3.5
2018-10-12T00:37:37.304Z,3.7
2018-10-12T00:38:06.800Z,3.7
2018-10-12T00:38:36.336Z,4.1
2018-10-12T00:39:05.882Z,3.7
2018-10-12T00:39:35.371Z,3.4
2018-10-12T00:40:04.874Z,3.5
2018-10-12T00:40:34.363Z,3.7
2018-10-12T00:41:04.872Z,3.6
2018-10-12T00:41:34.384Z,3.6
2018-10-12T00:42:03.909Z,3.7
2018-10-12T00:42:33.406Z,3.9
2018-10-12T00:43:02.904Z,4
2018-10-12T00:43:32.396Z,3.9
2018-10-12T00:44:01.879Z,3.6
2018-10-12T00:44:31.437Z,3.6
2018-10-12T00:45:00.928Z,3.7
2018-10-12T00:45:30.417Z,3.3
2018-10-12T00:46:00.913Z,3.5
2018-10-12T00:46:30.396Z,3.6
2018-10-12T00:46:59.900Z,3.5
2018-10-12T00:47:29.392Z,3.8
2018-10-12T00:47:58.937Z,3.7
2018-10-12T00:48:28.427Z,3.8
2018-10-12T00:48:57.930Z,3.9
2018-10-12T00:49:27.488Z,3.7
2018-10-12T00:49:57.040Z,3.6
2018-10-12T00:50:26.514Z,4.2
2018-10-12T00:50:56.009Z,4
2018-10-12T00:51:25.503Z,3.9
2018-10-12T00:51:55.004Z,3.9
2018-10-12T00:52:24.507Z,4
2018-10-12T00:52:54.000Z,4
2018-10-12T00:53:23.491Z,4.3
2018-10-12T00:53:52.988Z,4
2018-10-12T00:54:22.479Z,3.9
2018-10-12T00:54:52.038Z,3.9
2018-10-12T00:55:22.529Z,4
2018-10-12T00:55:52.019Z,4.1
2018-10-12T00:56:21.573Z,4
2018-10-12T00:56:51.065Z,3.7
2018-10-12T00:57:20.566Z,3.9
2018-10-12T00:57:50.056Z,3.9
2018-10-12T00:58:19.544Z,3.4
2018-10-12T00:58:49.058Z,3.7
2018-10-12T00:59:18.580Z,3.6
2018-10-12T00:59:49.122Z,3.6
2018-10-12T01:00:18.619Z,3.6
2018-10-12T01:00:48.124Z,3.6
2018-10-12T01:01:17.624Z,3.2
2018-10-12T01:01:47.119Z,3.6
2018-10-12T01:02:16.622Z,4
2018-10-12T01:02:46.123Z,3.4
2018-10-12T01:03:15.634Z,3.7
2018-10-12T01:03:45.128Z,3.2
2018-10-12T01:04:14.628Z,3.5
2018-10-12T01:04:44.134Z,3.5
2018-10-12T01:05:13.695Z,3.8
2018-10-12T01:05:43.206Z,3.3
2018-10-12T01:06:12.706Z,3.6
2018-10-12T01:06:42.307Z,3.8
2018-10-12T01:07:11.703Z,3.2
2018-10-12T01:07:41.199Z,3.6
2018-10-12T01:08:10.697Z,3.5
2018-10-12T01:08:40.193Z,3.8
2018-10-12T01:09:09.693Z,3.7
2018-10-12T01:09:39.176Z,4.4
2018-10-12T01:10:08.730Z,3.9
2018-10-12T01:10:38.256Z,3.8
2018-10-12T01:11:07.749Z,3.7
2018-10-12T01:11:37.240Z,3.3
2018-10-12T01:12:06.773Z,3.6
2018-10-12T01:12:36.225Z,4.2
2018-10-12T01:13:05.711Z,4.4
2018-10-12T01:13:35.214Z,4.8
2018-10-12T01:14:04.697Z,5.2
2018-10-12T01:14:34.189Z,5.6
2018-10-12T01:15:03.684Z,4.1
2018-10-12T01:15:33.221Z,3.5
2018-10-12T01:16:02.721Z,3.7
2018-10-12T01:16:32.211Z,3.6
2018-10-12T01:17:01.706Z,3.7
2018-10-12T01:17:31.215Z,3.7
2018-10-12T01:18:00.705Z,3.6
2018-10-12T01:18:30.199Z,3.6
2018-10-12T01:18:59.733Z,3.6
2018-10-12T01:19:29.228Z,3.6
2018-10-12T01:19:58.716Z,3.6
2018-10-12T01:20:29.246Z,3.6
2018-10-12T01:20:58.731Z,3.8
2018-10-12T01:21:28.221Z,3.6
2018-10-12T01:21:57.729Z,3.7
2018-10-12T01:22:27.239Z,3.6
2018-10-12T01:22:56.730Z,3.5
2018-10-12T01:23:26.216Z,3.6
2018-10-12T01:23:55.711Z,3.7
2018-10-12T01:24:25.208Z,3.5
2018-10-12T01:24:54.695Z,3.6
2018-10-12T01:25:24.201Z,3.5
2018-10-12T01:25:54.757Z,3.6
2018-10-12T01:26:24.237Z,3.4
2018-10-12T01:26:53.728Z,3.7
2018-10-12T01:27:23.217Z,3.6
2018-10-12T01:27:52.707Z,3.6
2018-10-12T01:28:22.204Z,3.8
2018-10-12T01:28:51.696Z,3.6
2018-10-12T01:29:21.184Z,3.9
2018-10-12T01:29:50.685Z,3.8
2018-10-12T01:30:21.174Z,3.5
2018-10-12T01:30:50.715Z,3.4
2018-10-12T01:31:20.215Z,3.3
2018-10-12T01:31:49.710Z,3.3
2018-10-12T01:32:19.208Z,3.7
2018-10-12T01:32:48.702Z,3.4
2018-10-12T01:33:18.225Z,3.8
2018-10-12T01:33:47.713Z,3.6
2018-10-12T01:34:17.195Z,3.3
2018-10-12T01:34:46.686Z,3.3
2018-10-12T01:35:16.181Z,3.2
2018-10-12T01:35:45.666Z,3.2
2018-10-12T01:36:15.221Z,3.6
2018-10-12T01:36:44.718Z,3.2
2018-10-12T01:37:14.205Z,3.4
2018-10-12T01:37:43.701Z,3.5
2018-10-12T01:38:13.205Z,4
2018-10-12T01:38:42.709Z,5.4
2018-10-12T01:39:12.199Z,5.1
2018-10-12T01:39:41.684Z,4.3
2018-10-12T01:40:11.225Z,3.6
2018-10-12T01:40:40.692Z,3.8
2018-10-12T01:41:10.233Z,3.5
2018-10-12T01:41:39.714Z,3.8
2018-10-12T01:42:09.202Z,3.7
2018-10-12T01:42:38.695Z,3.6
2018-10-12T01:43:08.185Z,3.7
2018-10-12T01:43:37.682Z,3.9
2018-10-12T01:44:08.163Z,3.6
2018-10-12T01:44:37.658Z,3.6
2018-10-12T01:45:07.158Z,3.6
2018-10-12T01:45:36.660Z,3.4
2018-10-12T01:46:06.161Z,3.5
2018-10-12T01:46:35.700Z,3.7
2018-10-12T01:47:05.189Z,3.4
2018-10-12T01:47:34.717Z,3.8
2018-10-12T01:48:04.202Z,3.5
2018-10-12T01:48:33.689Z,3.5
2018-10-12T01:49:03.189Z,3.8
2018-10-12T01:49:32.682Z,3.5
2018-10-12T01:50:02.178Z,3.7
2018-10-12T01:50:31.684Z,3.9
2018-10-12T01:51:01.172Z,3.2
2018-10-12T01:51:30.715Z,3.4
2018-10-12T01:52:00.258Z,3.6
2018-10-12T01:52:29.751Z,3.5
2018-10-12T01:52:59.242Z,3.5
2018-10-12T01:53:28.733Z,3.6
2018-10-12T01:53:58.224Z,3.6
2018-10-12T01:54:27.710Z,3.5
2018-10-12T01:54:57.209Z,3.6
2018-10-12T01:55:27.694Z,3.7
2018-10-12T01:55:57.184Z,3.6
2018-10-12T01:56:26.682Z,3.8
2018-10-12T01:56:56.228Z,10
2018-10-12T01:57:25.750Z,10.7
2018-10-12T01:57:55.245Z,6.6
2018-10-12T01:58:24.730Z,4.8
2018-10-12T01:58:54.251Z,4
2018-10-12T01:59:23.754Z,3.9
2018-10-12T01:59:53.265Z,4.1
2018-10-12T02:00:22.757Z,3.8
2018-10-12T02:00:52.248Z,4
2018-10-12T02:01:21.760Z,3.8
2018-10-12T02:01:52.288Z,3.7
2018-10-12T02:02:21.784Z,3.7
2018-10-12T02:02:51.276Z,3.9
2018-10-12T02:03:20.786Z,3.8
2018-10-12T02:03:50.274Z,4.2
2018-10-12T02:04:19.764Z,4.2
2018-10-12T02:04:49.249Z,3.8
2018-10-12T02:05:18.739Z,3.9
2018-10-12T02:05:48.231Z,4.3
2018-10-12T02:06:17.723Z,4.1
2018-10-12T02:06:47.214Z,4.3
2018-10-12T02:07:16.756Z,4
2018-10-12T02:07:46.287Z,4.2
2018-10-12T02:08:15.784Z,3.9
2018-10-12T02:08:45.285Z,3.7
2018-10-12T02:09:14.835Z,3.9
2018-10-12T02:09:44.331Z,4.1
2018-10-12T02:10:13.824Z,4.4
2018-10-12T02:10:43.315Z,4.3
2018-10-12T02:11:12.812Z,4.3
2018-10-12T02:11:42.310Z,4.3
2018-10-12T02:12:11.864Z,4.2
2018-10-12T02:12:41.356Z,4.3
2018-10-12T02:13:11.837Z,5.3
2018-10-12T02:13:41.337Z,7.2
2018-10-12T02:14:10.824Z,6.7
2018-10-12T02:14:40.322Z,7.9
2018-10-12T02:15:09.811Z,6.4
2018-10-12T02:15:39.304Z,4.3
2018-10-12T02:16:08.800Z,4
2018-10-12T02:16:38.290Z,3.8
2018-10-12T02:17:07.795Z,3.8
2018-10-12T02:17:37.340Z,4
2018-10-12T02:18:06.829Z,4.4
2018-10-12T02:18:36.324Z,7.2
2018-10-12T02:19:05.808Z,6.1
2018-10-12T02:19:35.302Z,4.8
2018-10-12T02:20:04.822Z,4.3
2018-10-12T02:20:34.291Z,4.1
2018-10-12T02:21:03.785Z,4.3
2018-10-12T02:21:33.278Z,4.3
2018-10-12T02:22:02.768Z,4.1
2018-10-12T02:22:32.331Z,4.4
2018-10-12T02:23:01.818Z,4.3
2018-10-12T02:23:31.363Z,4.4
2018-10-12T02:24:00.870Z,4.5
2018-10-12T02:24:31.359Z,4.3
2018-10-12T02:25:00.840Z,4.5
2018-10-12T02:25:30.332Z,4.6
2018-10-12T02:25:59.826Z,4.6
2018-10-12T02:26:29.324Z,4.5
2018-10-12T02:26:58.880Z,4.9
2018-10-12T02:27:28.380Z,4.5
2018-10-12T02:27:57.959Z,4.2
2018-10-12T02:28:27.453Z,4.5
2018-10-12T02:28:56.943Z,4.7
2018-10-12T02:29:26.434Z,4
2018-10-12T02:29:55.952Z,4.1
2018-10-12T02:30:25.448Z,4
2018-10-12T02:30:54.947Z,4.3
2018-10-12T02:31:24.434Z,4.4
2018-10-12T02:31:53.938Z,4.4
2018-10-12T02:32:23.417Z,4.5
2018-10-12T02:32:52.985Z,4.6
2018-10-12T02:33:22.469Z,4.6
2018-10-12T02:33:52.959Z,4.6
2018-10-12T02:34:22.536Z,4.7
2018-10-12T02:34:52.023Z,4.9
2018-10-12T02:35:21.534Z,4.5
2018-10-12T02:35:51.024Z,4.1
2018-10-12T02:36:20.513Z,4.5
2018-10-12T02:36:50.006Z,4.7
2018-10-12T02:37:19.497Z,4.8
2018-10-12T02:37:49.997Z,4.7
2018-10-12T02:38:19.535Z,4.5
2018-10-12T02:38:49.024Z,4.8
2018-10-12T02:39:18.532Z,4.9
2018-10-12T02:39:48.036Z,4.6
2018-10-12T02:40:17.532Z,4.3
2018-10-12T02:40:47.028Z,4.5
2018-10-12T02:41:16.520Z,4.4
2018-10-12T02:41:46.010Z,4.6
2018-10-12T02:42:15.509Z,4.5
2018-10-12T02:42:45.002Z,4.9
2018-10-12T02:43:14.539Z,4.6
2018-10-12T02:43:44.036Z,4.5
2018-10-12T02:44:13.543Z,4.8
2018-10-12T02:44:43.028Z,4.2
2018-10-12T02:45:12.534Z,4.5
2018-10-12T02:45:42.037Z,4.6
2018-10-12T02:46:11.533Z,4.6
2018-10-12T02:46:41.034Z,4.6
2018-10-12T02:47:10.524Z,4.8
2018-10-12T02:47:40.011Z,5.1
2018-10-12T02:48:09.504Z,4.6
2018-10-12T02:48:39.053Z,4.9
2018-10-12T02:49:08.560Z,4.9
2018-10-12T02:49:38.049Z,4.4
2018-10-12T02:50:07.533Z,4.8
2018-10-12T02:50:37.023Z,5
2018-10-12T02:51:06.542Z,4.6
2018-10-12T02:51:36.031Z,5.2
2018-10-12T02:52:05.516Z,5
2018-10-12T02:52:35.010Z,5
2018-10-12T02:53:04.518Z,5.1
2018-10-12T02:53:34.050Z,5
2018-10-12T02:54:03.541Z,5.5
2018-10-12T02:54:33.066Z,5.3
2018-10-12T02:55:02.555Z,5.2
2018-10-12T02:55:33.056Z,5.2
2018-10-12T02:56:02.545Z,5.3
2018-10-12T02:56:32.053Z,5.2
2018-10-12T02:57:02.534Z,5.4
2018-10-12T02:57:33.020Z,5
2018-10-12T02:58:02.509Z,5.1
2018-10-12T02:58:32.001Z,5.1
2018-10-12T02:59:01.539Z,5
2018-10-12T02:59:32.020Z,4.9
2018-10-12T03:00:01.518Z,4.4
2018-10-12T03:00:30.996Z,4.8
2018-10-12T03:01:00.490Z,4.5
2018-10-12T03:01:29.986Z,4.2
2018-10-12T03:01:59.473Z,4.4
2018-10-12T03:02:28.973Z,4.8
2018-10-12T03:02:59.466Z,4.8
2018-10-12T03:03:28.959Z,4.7
2018-10-12T03:03:58.505Z,4.4
2018-10-12T03:04:28.008Z,4.4
2018-10-12T03:04:57.512Z,4.5
2018-10-12T03:05:27.004Z,4.6
2018-10-12T03:05:56.575Z,4.6
2018-10-12T03:06:26.071Z,4.2
2018-10-12T03:06:55.556Z,4.1
2018-10-12T03:07:25.049Z,4.2
2018-10-12T03:07:54.539Z,4.3
2018-10-12T03:08:24.035Z,4.4
2018-10-12T03:08:53.579Z,4.3
2018-10-12T03:09:23.091Z,4.3
2018-10-12T03:09:52.589Z,4.5
2018-10-12T03:10:22.102Z,4.8
2018-10-12T03:10:51.585Z,4.1
2018-10-12T03:11:21.106Z,4.7
2018-10-12T03:11:50.593Z,4.6
2018-10-12T03:12:20.090Z,4.2
2018-10-12T03:12:49.578Z,4.5
2018-10-12T03:13:19.088Z,4.8
2018-10-12T03:13:48.592Z,4.7
2018-10-12T03:14:18.144Z,5.1
2018-10-12T03:14:48.627Z,4.6
2018-10-12T03:15:18.126Z,4.9
2018-10-12T03:15:47.618Z,4.5
2018-10-12T03:16:17.112Z,4.6
2018-10-12T03:16:46.602Z,4.6
2018-10-12T03:17:17.093Z,4.5
2018-10-12T03:17:46.576Z,4.7
2018-10-12T03:18:16.077Z,4.6
2018-10-12T03:18:45.579Z,4.6
2018-10-12T03:19:15.130Z,4.3
2018-10-12T03:19:44.626Z,4.5
2018-10-12T03:20:14.120Z,4.3
2018-10-12T03:20:43.628Z,4.7
2018-10-12T03:21:13.125Z,4.2
2018-10-12T03:21:43.612Z,4.4
2018-10-12T03:22:13.119Z,4.2
2018-10-12T03:22:42.612Z,4.2
2018-10-12T03:23:12.111Z,4.2
2018-10-12T03:23:41.603Z,4.5
2018-10-12T03:24:12.093Z,4.7
2018-10-12T03:24:41.640Z,4.2
2018-10-12T03:25:11.125Z,4.2
2018-10-12T03:25:40.612Z,4.4
2018-10-12T03:26:10.126Z,4.3
2018-10-12T03:26:39.618Z,4.2
2018-10-12T03:27:09.113Z,4.4
2018-10-12T03:27:39.612Z,4.4
2018-10-12T03:28:09.102Z,4.3
2018-10-12T03:28:38.591Z,4.5
2018-10-12T03:29:09.079Z,4.2
2018-10-12T03:29:38.635Z,4.2
2018-10-12T03:30:08.133Z,4.3
2018-10-12T03:30:37.620Z,4.1
2018-10-12T03:31:07.112Z,4.4
2018-10-12T03:31:36.619Z,4.6
2018-10-12T03:32:06.124Z,4.4
2018-10-12T03:32:35.616Z,4.4
2018-10-12T03:33:05.100Z,5
2018-10-12T03:33:34.691Z,4.6
2018-10-12T03:34:04.177Z,4.7
2018-10-12T03:34:33.716Z,4.5
2018-10-12T03:35:03.266Z,4.7
2018-10-12T03:35:32.774Z,4.8
2018-10-12T03:36:02.255Z,4.7
2018-10-12T03:36:31.751Z,4.7
2018-10-12T03:37:01.255Z,5.2
2018-10-12T03:37:30.776Z,5
2018-10-12T03:38:00.278Z,4.8
2018-10-12T03:38:29.765Z,4.8
2018-10-12T03:38:59.254Z,4.8
2018-10-12T03:39:28.749Z,5.1
2018-10-12T03:39:58.292Z,4.6
2018-10-12T03:40:27.789Z,4.7
2018-10-12T03:40:57.289Z,5.1
2018-10-12T03:41:26.784Z,5.1
2018-10-12T03:41:56.273Z,5
2018-10-12T03:42:25.760Z,4.5
2018-10-12T03:42:55.248Z,4.7
2018-10-12T03:43:24.771Z,4.8
2018-10-12T03:43:54.334Z,5
2018-10-12T03:44:23.775Z,4.9
2018-10-12T03:44:53.321Z,4.6
2018-10-12T03:45:22.810Z,4.8
2018-10-12T03:45:52.303Z,4.3
2018-10-12T03:46:21.822Z,4.3
2018-10-12T03:46:51.320Z,4.6
2018-10-12T03:47:20.807Z,4.4
2018-10-12T03:47:50.327Z,4.5
2018-10-12T03:48:19.839Z,4.2
2018-10-12T03:48:49.333Z,4.7
2018-10-12T03:49:18.847Z,4.6
2018-10-12T03:49:48.345Z,4.1
2018-10-12T03:50:17.897Z,4.3
2018-10-12T03:50:47.388Z,4.5
2018-10-12T03:51:16.885Z,4.8
2018-10-12T03:51:46.453Z,4.4
2018-10-12T03:52:15.872Z,4.6
2018-10-12T03:52:45.365Z,4.3
2018-10-12T03:53:14.856Z,4.5
2018-10-12T03:53:44.361Z,4.3
2018-10-12T03:54:13.878Z,4.2
2018-10-12T03:54:43.413Z,4.3
2018-10-12T03:55:14.055Z,4.4
2018-10-12T03:55:43.556Z,4.4
2018-10-12T03:56:13.048Z,4.4
2018-10-12T03:56:42.540Z,4.3
2018-10-12T03:57:12.333Z,4.9
2018-10-12T03:57:43.032Z,4.1
2018-10-12T03:58:12.549Z,4.5
2018-10-12T03:58:42.081Z,4.5
2018-10-12T03:59:11.575Z,4.5
2018-10-12T03:59:41.065Z,4.5
2018-10-12T04:00:10.553Z,4.7
2018-10-12T04:00:40.136Z,4.9
2018-10-12T04:01:09.640Z,4.9
2018-10-12T04:01:39.134Z,4.9
2018-10-12T04:02:08.639Z,4.6
2018-10-12T04:02:38.202Z,5
2018-10-12T04:03:07.645Z,5
2018-10-12T04:03:37.141Z,4.5
2018-10-12T04:04:06.653Z,4.8
2018-10-12T04:04:36.167Z,4.9
2018-10-12T04:05:05.678Z,4.9
2018-10-12T04:05:35.219Z,4.5
2018-10-12T04:06:04.719Z,4.3
2018-10-12T04:06:34.241Z,4.3
2018-10-12T04:07:03.769Z,4.3
2018-10-12T04:07:33.272Z,4.1
2018-10-12T04:08:02.765Z,4.1
2018-10-12T04:08:32.268Z,4.4
2018-10-12T04:09:01.759Z,4.4
2018-10-12T04:09:31.266Z,4.3
2018-10-12T04:10:00.776Z,4
2018-10-12T04:10:30.270Z,4.2
2018-10-12T04:10:59.821Z,4.1
2018-10-12T04:11:29.315Z,4.2
2018-10-12T04:11:58.847Z,4.1
2018-10-12T04:12:28.475Z,4
2018-10-12T04:12:57.851Z,3.9
2018-10-12T04:13:28.415Z,4
2018-10-12T04:14:00.007Z,4.2
2018-10-12T04:14:31.334Z,4.4
2018-10-12T04:15:03.837Z,4
2018-10-12T04:15:37.608Z,3.9
2018-10-12T04:16:09.848Z,3.8
2018-10-12T04:16:41.604Z,4.4
2018-10-12T04:17:14.211Z,4.6
2018-10-12T04:17:45.680Z,4.3
2018-10-12T04:18:16.997Z,4.1
2018-10-12T04:18:48.634Z,4
2018-10-12T04:19:21.301Z,4.1
2018-10-12T04:19:54.036Z,3.9
2018-10-12T04:20:27.087Z,4
2018-10-12T04:21:02.068Z,4
2018-10-12T04:21:35.849Z,4.1
2018-10-12T04:22:10.306Z,4
2018-10-12T04:22:43.915Z,3.7
2018-10-12T04:23:16.651Z,4
2018-10-12T04:23:49.921Z,3.9
2018-10-12T04:24:20.597Z,4
2018-10-12T04:24:51.052Z,3.8
2018-10-12T04:25:21.272Z,4
2018-10-12T04:25:52.753Z,4
2018-10-12T04:26:23.379Z,4
2018-10-12T04:26:52.963Z,4.2
2018-10-12T04:27:22.525Z,3.8
2018-10-12T04:27:52.102Z,3.8
2018-10-12T04:28:21.789Z,3.8
2018-10-12T04:28:52.822Z,3.9
2018-10-12T04:29:22.433Z,3.6
2018-10-12T04:29:52.761Z,3.6
2018-10-12T04:30:22.434Z,3.6
2018-10-12T04:30:52.961Z,3.6
2018-10-12T04:31:22.622Z,4.1
2018-10-12T04:31:52.138Z,3.5
2018-10-12T04:32:21.733Z,3.5
2018-10-12T04:32:51.231Z,3.6
2018-10-12T04:33:20.914Z,3.7
2018-10-12T04:33:51.412Z,3.9
2018-10-12T04:34:21.005Z,4
2018-10-12T04:34:50.520Z,3.6
2018-10-12T04:35:20.012Z,4.1
2018-10-12T04:35:49.512Z,3.8
2018-10-12T04:36:19.057Z,3.6
2018-10-12T04:36:48.555Z,3.5
2018-10-12T04:37:18.130Z,3.8
2018-10-12T04:37:51.593Z,3.8
2018-10-12T04:38:21.851Z,3.9
2018-10-12T04:38:53.258Z,3.7
2018-10-12T04:39:24.169Z,3.9
2018-10-12T04:39:54.725Z,3.9
2018-10-12T04:40:26.542Z,3.6
2018-10-12T04:40:57.661Z,3.8
2018-10-12T04:41:28.311Z,4.4
2018-10-12T04:41:58.412Z,4.4
2018-10-12T04:42:28.877Z,4.3
2018-10-12T04:42:58.555Z,4.1
2018-10-12T04:43:28.047Z,4
2018-10-12T04:43:57.549Z,4.1
2018-10-12T04:44:27.041Z,3.9
2018-10-12T04:44:56.534Z,3.9
2018-10-12T04:45:26.032Z,4.1
2018-10-12T04:45:55.572Z,4.3
2018-10-12T04:46:25.135Z,4.1
2018-10-12T04:46:54.631Z,4.1
2018-10-12T04:47:24.191Z,4.2
2018-10-12T04:47:53.611Z,4.4
2018-10-12T04:48:23.120Z,4.2
2018-10-12T04:48:52.641Z,4.3
2018-10-12T04:49:22.134Z,4.3
2018-10-12T04:49:51.637Z,4.2
2018-10-12T04:50:21.133Z,4
2018-10-12T04:50:50.641Z,3.8
2018-10-12T04:51:20.131Z,3.9
2018-10-12T04:51:49.683Z,4
2018-10-12T04:52:19.179Z,3.8
2018-10-12T04:52:49.669Z,3.9
2018-10-12T04:53:19.166Z,3.5
2018-10-12T04:53:48.738Z,3.5
2018-10-12T04:54:18.148Z,3.7
2018-10-12T04:54:48.628Z,3.7
2018-10-12T04:55:18.119Z,3.7
2018-10-12T04:55:47.603Z,3.5
2018-10-12T04:56:17.094Z,3.7
2018-10-12T04:56:46.652Z,3.7
2018-10-12T04:57:16.139Z,3.4
2018-10-12T04:57:45.630Z,3.7
2018-10-12T04:58:15.161Z,3.1
2018-10-12T04:58:44.654Z,3.6
2018-10-12T04:59:14.141Z,3.5
2018-10-12T04:59:43.639Z,3.4
2018-10-12T05:00:13.127Z,3.6
2018-10-12T05:00:42.738Z,3.3
2018-10-12T05:01:12.236Z,3.6
2018-10-12T05:01:41.695Z,3.3
2018-10-12T05:02:11.200Z,3.6
2018-10-12T05:02:40.685Z,3.3
2018-10-12T05:03:10.175Z,3.6
2018-10-12T05:03:39.687Z,3.5
2018-10-12T05:04:09.210Z,3.5
2018-10-12T05:04:38.707Z,3.5
2018-10-12T05:05:08.203Z,3.9
2018-10-12T05:05:37.699Z,3.6
2018-10-12T05:06:07.211Z,3.6
2018-10-12T05:06:36.704Z,3.7
2018-10-12T05:07:07.239Z,3.7
2018-10-12T05:07:36.783Z,3.7
2018-10-12T05:08:06.243Z,3.7
2018-10-12T05:08:35.740Z,4
2018-10-12T05:09:05.239Z,3.6
2018-10-12T05:09:34.735Z,3.5
2018-10-12T05:10:04.237Z,3.8
2018-10-12T05:10:33.739Z,3.9
2018-10-12T05:11:03.232Z,3.5
2018-10-12T05:11:32.748Z,3.9
2018-10-12T05:12:02.359Z,3.7
2018-10-12T05:12:31.884Z,3.6
2018-10-12T05:13:01.375Z,3.9
2018-10-12T05:13:30.874Z,3.7
2018-10-12T05:14:00.364Z,3.7
2018-10-12T05:14:29.863Z,3.6
2018-10-12T05:14:59.359Z,3.8
2018-10-12T05:15:28.874Z,3.9
2018-10-12T05:15:58.376Z,3.8
2018-10-12T05:16:27.878Z,3.6
2018-10-12T05:16:57.373Z,3.6
2018-10-12T05:17:26.956Z,3.4
2018-10-12T05:17:56.504Z,3.4
2018-10-12T05:18:26.000Z,3.6
2018-10-12T05:18:55.493Z,3.9
2018-10-12T05:19:24.996Z,3.8
2018-10-12T05:19:54.507Z,3.4
2018-10-12T05:20:24.003Z,4.1
2018-10-12T05:20:53.499Z,3.9
2018-10-12T05:21:23.000Z,3.7
2018-10-12T05:21:52.522Z,3.8
2018-10-12T05:22:22.038Z,3.8
2018-10-12T05:22:51.543Z,3.8
2018-10-12T05:23:21.032Z,3.9
2018-10-12T05:23:50.536Z,3.9
2018-10-12T05:24:20.037Z,3.8
2018-10-12T05:24:49.530Z,3.9
2018-10-12T05:25:19.034Z,3.9
2018-10-12T05:25:48.525Z,4
2018-10-12T05:26:18.023Z,3.6
2018-10-12T05:26:47.514Z,3.9
2018-10-12T05:27:17.004Z,3.7
2018-10-12T05:27:46.578Z,3.7
2018-10-12T05:28:16.075Z,3.6
2018-10-12T05:28:45.576Z,3.6
2018-10-12T05:29:15.068Z,3.4
2018-10-12T05:29:44.554Z,3.7
2018-10-12T05:30:14.056Z,3.7
2018-10-12T05:30:43.543Z,3.5
2018-10-12T05:31:13.082Z,3.6
2018-10-12T05:31:42.564Z,3.4
2018-10-12T05:32:12.068Z,3.4
2018-10-12T05:32:41.607Z,3.2
2018-10-12T05:33:11.099Z,3.6
2018-10-12T05:33:40.586Z,3.6
2018-10-12T05:34:10.081Z,3.1
2018-10-12T05:34:39.565Z,3.3
2018-10-12T05:35:09.060Z,3.3
2018-10-12T05:35:38.590Z,3.5
2018-10-12T05:36:08.196Z,3.4
2018-10-12T05:36:38.577Z,3.4
2018-10-12T05:37:08.062Z,3.4
2018-10-12T05:37:37.553Z,3.4
2018-10-12T05:38:07.098Z,3.3
2018-10-12T05:38:36.602Z,3.7
2018-10-12T05:39:06.080Z,3.3
2018-10-12T05:39:35.578Z,4
2018-10-12T05:40:05.065Z,5.5
2018-10-12T05:40:34.656Z,4.5
2018-10-12T05:41:04.144Z,4.2
2018-10-12T05:41:33.634Z,4
2018-10-12T05:42:03.127Z,4
2018-10-12T05:42:32.644Z,4.2
2018-10-12T05:43:02.206Z,4
2018-10-12T05:43:31.810Z,3.8
2018-10-12T05:44:01.160Z,3.7
2018-10-12T05:44:30.650Z,3.4
2018-10-12T05:45:00.138Z,3.2
2018-10-12T05:45:29.641Z,3
2018-10-12T05:45:59.136Z,3.1
2018-10-12T05:46:28.630Z,3
2018-10-12T05:46:58.124Z,3
2018-10-12T05:47:27.620Z,3
2018-10-12T05:47:57.112Z,2.8
2018-10-12T05:48:26.665Z,2.8
2018-10-12T05:48:56.237Z,2.7
2018-10-12T05:49:25.656Z,2.7
2018-10-12T05:49:55.152Z,2.7
2018-10-12T05:50:24.687Z,2.9
2018-10-12T05:50:54.167Z,2.9
2018-10-12T05:51:23.664Z,2.8
2018-10-12T05:51:53.225Z,2.9
2018-10-12T05:52:22.717Z,3
2018-10-12T05:52:52.207Z,3.1
2018-10-12T05:53:22.752Z,3.1
2018-10-12T05:53:53.227Z,3.2
2018-10-12T05:54:22.718Z,3
2018-10-12T05:54:52.209Z,3.3
2018-10-12T05:55:21.701Z,3.1
2018-10-12T05:55:51.261Z,2.8
2018-10-12T05:56:20.698Z,3.2
2018-10-12T05:56:50.174Z,2.9
2018-10-12T05:57:19.667Z,2.9
2018-10-12T05:57:49.151Z,2.6
2018-10-12T05:58:18.647Z,2.9
2018-10-12T05:58:48.241Z,3
2018-10-12T05:59:17.718Z,2.8
2018-10-12T05:59:47.225Z,3.1
2018-10-12T06:00:16.718Z,3.2
2018-10-12T06:00:46.222Z,3.1
2018-10-12T06:01:15.746Z,3.1
2018-10-12T06:01:45.204Z,3.2
2018-10-12T06:02:14.718Z,3
2018-10-12T06:02:44.224Z,3.2
2018-10-12T06:03:13.716Z,2.9
2018-10-12T06:03:43.260Z,2.8
2018-10-12T06:04:12.760Z,3.4
2018-10-12T06:04:42.252Z,2.9
2018-10-12T06:05:11.740Z,3.1
2018-10-12T06:05:41.234Z,3.1
2018-10-12T06:06:10.724Z,3.2
2018-10-12T06:06:40.246Z,3.3
2018-10-12T06:07:09.768Z,3.1
2018-10-12T06:07:39.272Z,3.1
2018-10-12T06:08:08.768Z,2.9
2018-10-12T06:08:38.268Z,3.2
2018-10-12T06:09:07.813Z,3.2
2018-10-12T06:09:37.428Z,2.9
2018-10-12T06:10:08.906Z,2.9
2018-10-12T06:10:38.271Z,3
2018-10-12T06:11:07.805Z,3
2018-10-12T06:11:37.252Z,3
2018-10-12T06:12:06.741Z,3.2
2018-10-12T06:12:36.235Z,3.1
2018-10-12T06:13:05.721Z,3.1
2018-10-12T06:13:35.220Z,3.4
2018-10-12T06:14:04.765Z,3
2018-10-12T06:14:34.254Z,3.2
2018-10-12T06:15:03.752Z,3.1
2018-10-12T06:15:33.300Z,2.9
2018-10-12T06:16:02.740Z,2.9
2018-10-12T06:16:32.241Z,3.2
2018-10-12T06:17:01.731Z,3
2018-10-12T06:17:31.223Z,3
2018-10-12T06:18:00.744Z,3
2018-10-12T06:18:30.279Z,3.3
2018-10-12T06:18:59.781Z,3
2018-10-12T06:19:29.328Z,2.8
2018-10-12T06:19:58.833Z,2.9
2018-10-12T06:20:29.310Z,3.1
2018-10-12T06:20:58.807Z,3
2018-10-12T06:21:28.333Z,3
2018-10-12T06:21:58.241Z,3.6
2018-10-12T06:22:28.111Z,3.1
2018-10-12T06:22:57.603Z,3.4
2018-10-12T06:23:27.097Z,3
2018-10-12T06:23:56.641Z,3.2
2018-10-12T06:24:26.190Z,3.1
2018-10-12T06:24:55.699Z,3.3
2018-10-12T06:25:25.229Z,3.3
2018-10-12T06:25:54.684Z,3.5
2018-10-12T06:26:24.176Z,3.4
2018-10-12T06:26:53.731Z,3.5
2018-10-12T06:27:23.157Z,3.3
2018-10-12T06:27:53.646Z,3.2
2018-10-12T06:28:23.142Z,3.2
2018-10-12T06:28:52.637Z,3.1
2018-10-12T06:29:22.149Z,3.3
2018-10-12T06:29:51.700Z,3.1
2018-10-12T06:30:21.202Z,3
2018-10-12T06:30:50.695Z,3.2
2018-10-12T06:31:20.211Z,3
2018-10-12T06:31:49.711Z,2.8
2018-10-12T06:32:19.193Z,3.1
2018-10-12T06:32:48.737Z,3.1
2018-10-12T06:33:18.188Z,3.1
2018-10-12T06:33:47.716Z,3.2
2018-10-12T06:34:17.254Z,3.1
2018-10-12T06:34:46.795Z,3.3
2018-10-12T06:35:16.307Z,2.8
2018-10-12T06:35:45.806Z,3.3
2018-10-12T06:36:15.300Z,2.9
2018-10-12T06:36:44.804Z,3.3
2018-10-12T06:37:14.393Z,3
2018-10-12T06:37:43.892Z,3
2018-10-12T06:38:13.402Z,3
2018-10-12T06:38:42.922Z,3.1
2018-10-12T06:39:12.421Z,3.1
2018-10-12T06:39:41.985Z,3.1
2018-10-12T06:40:11.506Z,2.9
2018-10-12T06:40:42.016Z,3.2
2018-10-12T06:41:12.536Z,3.3
2018-10-12T06:41:42.251Z,3.5
2018-10-12T06:42:11.543Z,3.2
2018-10-12T06:42:41.043Z,3.6
2018-10-12T06:43:10.557Z,3.6
2018-10-12T06:43:40.054Z,3.5
2018-10-12T06:44:09.556Z,3.7
2018-10-12T06:44:39.052Z,3.3
2018-10-12T06:45:08.754Z,3.3
2018-10-12T06:45:38.532Z,3.4
2018-10-12T06:46:08.012Z,3.6
2018-10-12T06:46:37.924Z,3.2
2018-10-12T06:47:07.520Z,3.4
2018-10-12T06:47:37.059Z,3.4
2018-10-12T06:48:06.678Z,3.5
2018-10-12T06:48:36.193Z,3.4
2018-10-12T06:49:05.684Z,3.3
2018-10-12T06:49:36.179Z,3.5
2018-10-12T06:50:05.737Z,3.1
2018-10-12T06:50:35.250Z,2.9
2018-10-12T06:51:04.759Z,3